sensor_id;sensor_type;location;lat;lon;timestamp;pressure;altitude;pressure_sealevel;temperature;humidity
16190;BME280;41754;51.498;7.540;2023-07-24T00:02:07;99390.25;;;17.40;88.74
16190;BME280;41754;51.498;7.540;2023-07-24T00:04:35;99378.25;;;17.36;89.21
16190;BME280;41754;51.498;7.540;2023-07-24T00:07:05;99378.94;;;17.38;88.91
16190;BME280;41754;51.498;7.540;2023-07-24T00:09:33;99382.44;;;17.38;89.02
16190;BME280;41754;51.498;7.540;2023-07-24T00:12:00;99380.44;;;17.40;88.81
16190;BME280;41754;51.498;7.540;2023-07-24T00:14:29;99372.44;;;17.32;89.06
16190;BME280;41754;51.498;7.540;2023-07-24T00:16:57;99376.47;;;17.36;88.99
16190;BME280;41754;51.498;7.540;2023-07-24T00:19:24;99377.78;;;17.32;88.58
16190;BME280;41754;51.498;7.540;2023-07-24T00:21:52;99378.09;;;17.29;88.47
16190;BME280;41754;51.498;7.540;2023-07-24T00:24:21;99372.28;;;17.25;88.49
16190;BME280;41754;51.498;7.540;2023-07-24T00:26:49;99370.97;;;17.21;88.93
16190;BME280;41754;51.498;7.540;2023-07-24T00:29:17;99369.13;;;17.22;88.76
16190;BME280;41754;51.498;7.540;2023-07-24T00:31:45;99368.47;;;17.20;89.31
16190;BME280;41754;51.498;7.540;2023-07-24T00:34:13;99358.66;;;17.20;88.62
16190;BME280;41754;51.498;7.540;2023-07-24T00:36:41;99351.19;;;17.16;89.26
16190;BME280;41754;51.498;7.540;2023-07-24T00:39:08;99349.53;;;17.15;89.70
16190;BME280;41754;51.498;7.540;2023-07-24T00:41:38;99342.88;;;17.19;89.00
16190;BME280;41754;51.498;7.540;2023-07-24T00:44:05;99337.56;;;17.11;89.67
16190;BME280;41754;51.498;7.540;2023-07-24T00:46:35;99328.94;;;17.09;89.73
16190;BME280;41754;51.498;7.540;2023-07-24T00:49:04;99315.00;;;17.06;89.91
16190;BME280;41754;51.498;7.540;2023-07-24T00:51:33;99321.94;;;17.08;89.43
16190;BME280;41754;51.498;7.540;2023-07-24T00:54:02;99319.47;;;17.06;89.78
16190;BME280;41754;51.498;7.540;2023-07-24T00:56:31;99319.13;;;17.09;89.27
16190;BME280;41754;51.498;7.540;2023-07-24T00:59:01;99322.78;;;17.08;89.38
16190;BME280;41754;51.498;7.540;2023-07-24T01:01:29;99326.59;;;17.05;89.91
16190;BME280;41754;51.498;7.540;2023-07-24T01:03:57;99318.63;;;17.05;89.53
16190;BME280;41754;51.498;7.540;2023-07-24T01:06:25;99326.44;;;17.07;89.27
16190;BME280;41754;51.498;7.540;2023-07-24T01:08:54;99314.66;;;17.10;89.21
16190;BME280;41754;51.498;7.540;2023-07-24T01:11:25;99317.47;;;17.08;89.06
16190;BME280;41754;51.498;7.540;2023-07-24T01:13:57;99316.63;;;17.08;89.19
16190;BME280;41754;51.498;7.540;2023-07-24T01:16:33;99322.13;;;17.06;89.17
16190;BME280;41754;51.498;7.540;2023-07-24T01:19:10;99319.66;;;17.13;88.31
16190;BME280;41754;51.498;7.540;2023-07-24T01:21:58;99308.66;;;17.16;87.93
16190;BME280;41754;51.498;7.540;2023-07-24T01:24:33;99312.00;;;17.18;87.55
16190;BME280;41754;51.498;7.540;2023-07-24T01:27:07;99310.31;;;17.17;87.59
16190;BME280;41754;51.498;7.540;2023-07-24T01:29:34;99307.50;;;17.18;87.33
16190;BME280;41754;51.498;7.540;2023-07-24T01:32:03;99292.72;;;17.16;86.63
16190;BME280;41754;51.498;7.540;2023-07-24T01:34:31;99292.53;;;17.09;86.90
16190;BME280;41754;51.498;7.540;2023-07-24T01:36:59;99308.00;;;17.05;87.08
16190;BME280;41754;51.498;7.540;2023-07-24T01:39:27;99299.03;;;17.06;87.16
16190;BME280;41754;51.498;7.540;2023-07-24T01:41:55;99297.03;;;17.09;87.02
16190;BME280;41754;51.498;7.540;2023-07-24T01:44:25;99297.69;;;17.11;86.90
16190;BME280;41754;51.498;7.540;2023-07-24T01:46:53;99290.41;;;17.04;87.33
16190;BME280;41754;51.498;7.540;2023-07-24T01:49:20;99277.94;;;17.05;87.25
16190;BME280;41754;51.498;7.540;2023-07-24T01:51:48;99278.44;;;17.00;87.56
16190;BME280;41754;51.498;7.540;2023-07-24T01:54:16;99274.47;;;16.96;87.22
16190;BME280;41754;51.498;7.540;2023-07-24T01:56:44;99267.47;;;16.95;87.39
16190;BME280;41754;51.498;7.540;2023-07-24T01:59:12;99271.66;;;16.90;87.75
16190;BME280;41754;51.498;7.540;2023-07-24T02:01:41;99270.59;;;16.82;88.06
16190;BME280;41754;51.498;7.540;2023-07-24T02:04:09;99265.47;;;16.89;88.10
16190;BME280;41754;51.498;7.540;2023-07-24T02:06:38;99268.13;;;16.89;87.60
16190;BME280;41754;51.498;7.540;2023-07-24T02:09:06;99254.38;;;16.85;88.10
16190;BME280;41754;51.498;7.540;2023-07-24T02:11:34;99257.16;;;16.84;88.04
16190;BME280;41754;51.498;7.540;2023-07-24T02:14:02;99248.72;;;16.88;87.37
16190;BME280;41754;51.498;7.540;2023-07-24T02:16:30;99248.88;;;16.95;87.75
16190;BME280;41754;51.498;7.540;2023-07-24T02:18:59;99234.94;;;16.93;87.39
16190;BME280;41754;51.498;7.540;2023-07-24T02:21:27;99239.59;;;16.99;87.37
16190;BME280;41754;51.498;7.540;2023-07-24T02:23:55;99240.75;;;16.97;87.46
16190;BME280;41754;51.498;7.540;2023-07-24T02:26:23;99236.78;;;16.93;87.63
16190;BME280;41754;51.498;7.540;2023-07-24T02:28:51;99232.28;;;16.93;87.55
16190;BME280;41754;51.498;7.540;2023-07-24T02:31:20;99238.41;;;17.02;87.80
16190;BME280;41754;51.498;7.540;2023-07-24T02:33:48;99236.59;;;17.02;87.52
16190;BME280;41754;51.498;7.540;2023-07-24T02:36:17;99240.91;;;17.03;87.80
16190;BME280;41754;51.498;7.540;2023-07-24T02:38:45;99231.81;;;16.90;88.21
16190;BME280;41754;51.498;7.540;2023-07-24T02:41:13;99225.28;;;16.84;88.25
16190;BME280;41754;51.498;7.540;2023-07-24T02:43:41;99236.09;;;16.91;88.09
16190;BME280;41754;51.498;7.540;2023-07-24T02:46:08;99231.47;;;16.93;87.69
16190;BME280;41754;51.498;7.540;2023-07-24T02:48:36;99229.63;;;16.93;87.51
16190;BME280;41754;51.498;7.540;2023-07-24T02:51:04;99224.16;;;16.95;87.55
16190;BME280;41754;51.498;7.540;2023-07-24T02:53:33;99222.47;;;17.02;87.33
16190;BME280;41754;51.498;7.540;2023-07-24T02:56:01;99210.34;;;17.08;87.15
16190;BME280;41754;51.498;7.540;2023-07-24T02:58:29;99205.53;;;17.11;87.19
16190;BME280;41754;51.498;7.540;2023-07-24T03:01:03;99211.66;;;17.12;86.69
16190;BME280;41754;51.498;7.540;2023-07-24T03:03:32;99217.31;;;17.17;86.88
16190;BME280;41754;51.498;7.540;2023-07-24T03:06:00;99222.13;;;17.21;86.51
16190;BME280;41754;51.498;7.540;2023-07-24T03:08:28;99224.78;;;17.21;86.45
16190;BME280;41754;51.498;7.540;2023-07-24T03:10:57;99216.97;;;17.28;86.24
16190;BME280;41754;51.498;7.540;2023-07-24T03:13:26;99207.63;;;17.32;86.18
16190;BME280;41754;51.498;7.540;2023-07-24T03:15:54;99207.16;;;17.29;85.93
16190;BME280;41754;51.498;7.540;2023-07-24T03:18:23;99192.16;;;17.36;86.02
16190;BME280;41754;51.498;7.540;2023-07-24T03:20:51;99179.75;;;17.28;86.16
16190;BME280;41754;51.498;7.540;2023-07-24T03:23:19;99182.06;;;17.31;86.16
16190;BME280;41754;51.498;7.540;2023-07-24T03:25:47;99172.09;;;17.33;85.47
16190;BME280;41754;51.498;7.540;2023-07-24T03:28:17;99177.41;;;17.33;85.66
16190;BME280;41754;51.498;7.540;2023-07-24T03:30:45;99196.03;;;17.25;86.31
16190;BME280;41754;51.498;7.540;2023-07-24T03:33:13;99204.50;;;17.20;86.84
16190;BME280;41754;51.498;7.540;2023-07-24T03:35:41;99197.03;;;17.16;86.94
16190;BME280;41754;51.498;7.540;2023-07-24T03:38:08;99195.06;;;17.10;87.83
16190;BME280;41754;51.498;7.540;2023-07-24T03:40:36;99184.44;;;17.10;88.03
16190;BME280;41754;51.498;7.540;2023-07-24T03:43:04;99169.66;;;17.07;88.19
16190;BME280;41754;51.498;7.540;2023-07-24T03:45:33;99160.53;;;17.10;88.14
16190;BME280;41754;51.498;7.540;2023-07-24T03:48:01;99150.88;;;17.17;87.67
16190;BME280;41754;51.498;7.540;2023-07-24T03:50:29;99158.84;;;17.09;87.97
16190;BME280;41754;51.498;7.540;2023-07-24T03:52:57;99164.50;;;17.05;88.28
16190;BME280;41754;51.498;7.540;2023-07-24T03:55:25;99155.88;;;17.03;88.78
16190;BME280;41754;51.498;7.540;2023-07-24T03:57:52;99151.88;;;17.08;88.48
16190;BME280;41754;51.498;7.540;2023-07-24T04:00:20;99153.06;;;17.05;88.71
16190;BME280;41754;51.498;7.540;2023-07-24T04:02:49;99149.25;;;16.99;89.04
16190;BME280;41754;51.498;7.540;2023-07-24T04:05:17;99138.97;;;16.96;89.35
16190;BME280;41754;51.498;7.540;2023-07-24T04:07:45;99142.28;;;16.98;89.27
16190;BME280;41754;51.498;7.540;2023-07-24T04:10:13;99138.78;;;17.06;88.77
16190;BME280;41754;51.498;7.540;2023-07-24T04:12:41;99138.59;;;17.08;88.81
16190;BME280;41754;51.498;7.540;2023-07-24T04:15:09;99131.94;;;17.12;88.06
16190;BME280;41754;51.498;7.540;2023-07-24T04:17:37;99142.25;;;17.15;88.62
16190;BME280;41754;51.498;7.540;2023-07-24T04:20:08;99145.38;;;17.18;88.27
16190;BME280;41754;51.498;7.540;2023-07-24T04:22:36;99143.88;;;17.16;88.53
16190;BME280;41754;51.498;7.540;2023-07-24T04:25:04;99141.91;;;17.18;88.29
16190;BME280;41754;51.498;7.540;2023-07-24T04:27:32;99143.06;;;17.15;88.42
16190;BME280;41754;51.498;7.540;2023-07-24T04:30:00;99136.94;;;17.15;88.97
16190;BME280;41754;51.498;7.540;2023-07-24T04:32:28;99143.53;;;17.19;88.41
16190;BME280;41754;51.498;7.540;2023-07-24T04:34:55;99149.84;;;17.26;88.12
16190;BME280;41754;51.498;7.540;2023-07-24T04:37:25;99156.16;;;17.25;88.10
16190;BME280;41754;51.498;7.540;2023-07-24T04:39:52;99158.13;;;17.31;87.32
16190;BME280;41754;51.498;7.540;2023-07-24T04:42:20;99150.31;;;17.38;87.04
16190;BME280;41754;51.498;7.540;2023-07-24T04:44:48;99155.63;;;17.38;87.31
16190;BME280;41754;51.498;7.540;2023-07-24T04:47:18;99158.75;;;17.41;86.50
16190;BME280;41754;51.498;7.540;2023-07-24T04:49:45;99151.56;;;17.50;86.38
16190;BME280;41754;51.498;7.540;2023-07-24T04:52:13;99151.75;;;17.49;86.28
16190;BME280;41754;51.498;7.540;2023-07-24T04:54:42;99150.06;;;17.48;86.30
16190;BME280;41754;51.498;7.540;2023-07-24T04:57:10;99143.91;;;17.55;85.42
16190;BME280;41754;51.498;7.540;2023-07-24T04:59:38;99143.09;;;17.55;85.20
16190;BME280;41754;51.498;7.540;2023-07-24T05:02:06;99140.41;;;17.55;85.42
16190;BME280;41754;51.498;7.540;2023-07-24T05:04:34;99146.38;;;17.57;85.30
16190;BME280;41754;51.498;7.540;2023-07-24T05:07:02;99142.22;;;17.54;85.24
16190;BME280;41754;51.498;7.540;2023-07-24T05:09:31;99141.41;;;17.54;85.31
16190;BME280;41754;51.498;7.540;2023-07-24T05:12:00;99146.38;;;17.57;85.55
16190;BME280;41754;51.498;7.540;2023-07-24T05:14:28;99145.56;;;17.56;85.20
16190;BME280;41754;51.498;7.540;2023-07-24T05:16:56;99141.88;;;17.57;85.64
16190;BME280;41754;51.498;7.540;2023-07-24T05:19:24;99155.16;;;17.66;84.82
16190;BME280;41754;51.498;7.540;2023-07-24T05:21:53;99153.31;;;17.66;84.33
16190;BME280;41754;51.498;7.540;2023-07-24T05:24:21;99151.31;;;17.68;84.01
16190;BME280;41754;51.498;7.540;2023-07-24T05:26:49;99162.28;;;17.73;83.22
16190;BME280;41754;51.498;7.540;2023-07-24T05:29:18;99170.97;;;17.59;84.14
16190;BME280;41754;51.498;7.540;2023-07-24T05:31:46;99172.38;;;17.38;86.52
16190;BME280;41754;51.498;7.540;2023-07-24T05:34:14;99152.84;;;17.23;88.28
16190;BME280;41754;51.498;7.540;2023-07-24T05:36:42;99158.53;;;17.12;89.23
16190;BME280;41754;51.498;7.540;2023-07-24T05:39:10;99161.50;;;17.09;89.94
16190;BME280;41754;51.498;7.540;2023-07-24T05:41:38;99160.38;;;17.03;90.15
16190;BME280;41754;51.498;7.540;2023-07-24T05:44:06;99164.69;;;17.04;90.32
16190;BME280;41754;51.498;7.540;2023-07-24T05:46:36;99166.50;;;17.12;90.41
16190;BME280;41754;51.498;7.540;2023-07-24T05:49:04;99166.50;;;17.12;89.59
16190;BME280;41754;51.498;7.540;2023-07-24T05:51:32;99179.94;;;17.18;90.10
16190;BME280;41754;51.498;7.540;2023-07-24T05:54:00;99177.25;;;17.27;89.62
16190;BME280;41754;51.498;7.540;2023-07-24T05:56:28;99178.56;;;17.31;90.16
16190;BME280;41754;51.498;7.540;2023-07-24T05:58:56;99182.38;;;17.36;90.32
16190;BME280;41754;51.498;7.540;2023-07-24T06:01:24;99195.16;;;17.33;89.65
16190;BME280;41754;51.498;7.540;2023-07-24T06:03:53;99197.47;;;17.36;89.98
16190;BME280;41754;51.498;7.540;2023-07-24T06:06:21;99202.63;;;17.37;90.01
16190;BME280;41754;51.498;7.540;2023-07-24T06:08:49;99201.31;;;17.33;90.18
16190;BME280;41754;51.498;7.540;2023-07-24T06:11:17;99190.03;;;17.31;89.85
16190;BME280;41754;51.498;7.540;2023-07-24T06:13:45;99197.63;;;17.42;89.27
16190;BME280;41754;51.498;7.540;2023-07-24T06:16:13;99196.94;;;17.49;88.58
16190;BME280;41754;51.498;7.540;2023-07-24T06:18:41;99191.63;;;17.49;88.84
16190;BME280;41754;51.498;7.540;2023-07-24T06:21:11;99194.13;;;17.50;88.61
16190;BME280;41754;51.498;7.540;2023-07-24T06:23:39;99200.25;;;17.51;88.18
16190;BME280;41754;51.498;7.540;2023-07-24T06:26:07;99205.91;;;17.48;88.54
16190;BME280;41754;51.498;7.540;2023-07-24T06:28:35;99203.97;;;17.41;89.10
16190;BME280;41754;51.498;7.540;2023-07-24T06:31:03;99195.13;;;17.41;89.32
16190;BME280;41754;51.498;7.540;2023-07-24T06:33:31;99204.91;;;17.57;88.49
16190;BME280;41754;51.498;7.540;2023-07-24T06:35:59;99209.72;;;17.93;87.58
16190;BME280;41754;51.498;7.540;2023-07-24T06:38:28;99216.22;;;17.98;86.27
16190;BME280;41754;51.498;7.540;2023-07-24T06:40:56;99214.59;;;17.89;87.31
16190;BME280;41754;51.498;7.540;2023-07-24T06:43:25;99215.44;;;17.82;87.75
16190;BME280;41754;51.498;7.540;2023-07-24T06:45:54;99215.59;;;17.80;86.96
16190;BME280;41754;51.498;7.540;2023-07-24T06:48:22;99212.78;;;17.82;86.94
16190;BME280;41754;51.498;7.540;2023-07-24T06:50:50;99212.59;;;17.83;87.96
16190;BME280;41754;51.498;7.540;2023-07-24T06:53:18;99211.41;;;17.86;86.76
16190;BME280;41754;51.498;7.540;2023-07-24T06:55:47;99209.03;;;17.99;87.42
16190;BME280;41754;51.498;7.540;2023-07-24T06:58:15;99202.91;;;17.98;86.49
16190;BME280;41754;51.498;7.540;2023-07-24T07:00:43;99198.19;;;18.09;86.85
16190;BME280;41754;51.498;7.540;2023-07-24T07:03:10;99211.16;;;18.12;85.08
16190;BME280;41754;51.498;7.540;2023-07-24T07:05:38;99207.94;;;18.16;84.39
16190;BME280;41754;51.498;7.540;2023-07-24T07:08:06;99197.78;;;18.20;83.67
16190;BME280;41754;51.498;7.540;2023-07-24T07:10:34;99194.88;;;18.30;83.33
16190;BME280;41754;51.498;7.540;2023-07-24T07:13:03;99198.66;;;18.59;81.80
16190;BME280;41754;51.498;7.540;2023-07-24T07:15:30;99189.53;;;18.76;81.54
16190;BME280;41754;51.498;7.540;2023-07-24T07:17:58;99190.13;;;18.86;81.55
16190;BME280;41754;51.498;7.540;2023-07-24T07:20:26;99191.31;;;18.84;80.36
16190;BME280;41754;51.498;7.540;2023-07-24T07:22:53;99190.78;;;19.03;80.12
16190;BME280;41754;51.498;7.540;2023-07-24T07:25:21;99188.50;;;19.15;77.90
16190;BME280;41754;51.498;7.540;2023-07-24T07:27:49;99188.69;;;19.28;78.60
16190;BME280;41754;51.498;7.540;2023-07-24T07:30:18;99186.47;;;19.47;76.51
16190;BME280;41754;51.498;7.540;2023-07-24T07:32:46;99181.03;;;19.55;76.43
16190;BME280;41754;51.498;7.540;2023-07-24T07:35:15;99191.44;;;19.35;75.25
16190;BME280;41754;51.498;7.540;2023-07-24T07:37:43;99189.81;;;19.49;76.88
16190;BME280;41754;51.498;7.540;2023-07-24T07:40:11;99179.41;;;19.54;76.27
16190;BME280;41754;51.498;7.540;2023-07-24T07:42:39;99178.09;;;19.65;76.23
16190;BME280;41754;51.498;7.540;2023-07-24T07:45:10;99185.09;;;19.51;75.36
16190;BME280;41754;51.498;7.540;2023-07-24T07:47:40;99172.94;;;19.63;74.96
16190;BME280;41754;51.498;7.540;2023-07-24T07:50:08;99178.16;;;19.72;74.83
16190;BME280;41754;51.498;7.540;2023-07-24T07:52:36;99176.28;;;20.02;74.88
16190;BME280;41754;51.498;7.540;2023-07-24T07:55:04;99171.09;;;19.79;73.69
16190;BME280;41754;51.498;7.540;2023-07-24T07:57:34;99166.16;;;19.76;74.70
16190;BME280;41754;51.498;7.540;2023-07-24T08:00:02;99167.97;;;19.75;73.80
16190;BME280;41754;51.498;7.540;2023-07-24T08:02:30;99172.41;;;19.53;73.98
16190;BME280;41754;51.498;7.540;2023-07-24T08:05:00;99169.34;;;19.56;74.83
16190;BME280;41754;51.498;7.540;2023-07-24T08:07:37;99170.19;;;19.57;73.91
16190;BME280;41754;51.498;7.540;2023-07-24T08:10:05;99169.81;;;19.60;74.10
16190;BME280;41754;51.498;7.540;2023-07-24T08:12:33;99169.53;;;19.70;73.77
16190;BME280;41754;51.498;7.540;2023-07-24T08:15:01;99173.97;;;19.62;74.09
16190;BME280;41754;51.498;7.540;2023-07-24T08:17:29;99180.41;;;19.53;73.70
16190;BME280;41754;51.498;7.540;2023-07-24T08:19:57;99184.31;;;19.72;74.25
16190;BME280;41754;51.498;7.540;2023-07-24T08:22:26;99166.50;;;19.58;73.19
16190;BME280;41754;51.498;7.540;2023-07-24T08:24:54;99165.75;;;19.79;73.54
16190;BME280;41754;51.498;7.540;2023-07-24T08:27:23;99164.06;;;19.93;72.63
16190;BME280;41754;51.498;7.540;2023-07-24T08:29:51;99152.31;;;20.09;71.35
16190;BME280;41754;51.498;7.540;2023-07-24T08:32:19;99158.97;;;20.41;71.04
16190;BME280;41754;51.498;7.540;2023-07-24T08:34:47;99155.31;;;20.20;70.01
16190;BME280;41754;51.498;7.540;2023-07-24T08:37:15;99157.28;;;20.12;71.42
16190;BME280;41754;51.498;7.540;2023-07-24T08:39:44;99159.06;;;20.26;70.56
16190;BME280;41754;51.498;7.540;2023-07-24T08:42:14;99155.09;;;20.44;69.33
16190;BME280;41754;51.498;7.540;2023-07-24T08:44:42;99154.47;;;20.42;67.93
16190;BME280;41754;51.498;7.540;2023-07-24T08:47:11;99157.75;;;20.87;67.03
16190;BME280;41754;51.498;7.540;2023-07-24T08:49:39;99148.25;;;21.19;67.14
16190;BME280;41754;51.498;7.540;2023-07-24T08:52:08;99155.16;;;21.00;64.88
16190;BME280;41754;51.498;7.540;2023-07-24T08:54:54;99153.88;;;21.31;65.45
16190;BME280;41754;51.498;7.540;2023-07-24T08:57:27;99140.81;;;21.49;64.70
16190;BME280;41754;51.498;7.540;2023-07-24T08:59:55;99156.59;;;21.79;62.73
16190;BME280;41754;51.498;7.540;2023-07-24T09:02:22;99153.38;;;21.49;63.65
16190;BME280;41754;51.498;7.540;2023-07-24T09:04:51;99146.66;;;21.66;61.30
16190;BME280;41754;51.498;7.540;2023-07-24T09:07:19;99153.88;;;21.31;61.55
16190;BME280;41754;51.498;7.540;2023-07-24T09:09:47;99148.06;;;21.56;60.58
16190;BME280;41754;51.498;7.540;2023-07-24T09:12:17;99158.22;;;20.97;62.43
16190;BME280;41754;51.498;7.540;2023-07-24T09:14:45;99148.84;;;20.80;64.72
16190;BME280;41754;51.498;7.540;2023-07-24T09:17:15;99152.63;;;20.92;62.76
16190;BME280;41754;51.498;7.540;2023-07-24T09:19:42;99151.88;;;20.98;63.83
16190;BME280;41754;51.498;7.540;2023-07-24T09:22:12;99156.59;;;20.74;63.48
16190;BME280;41754;51.498;7.540;2023-07-24T09:24:49;99162.06;;;20.38;64.57
16190;BME280;41754;51.498;7.540;2023-07-24T09:27:19;99155.16;;;20.50;64.98
16190;BME280;41754;51.498;7.540;2023-07-24T09:29:48;99140.22;;;20.84;63.90
16190;BME280;41754;51.498;7.540;2023-07-24T09:32:20;99136.88;;;21.04;63.23
16190;BME280;41754;51.498;7.540;2023-07-24T09:34:48;99141.94;;;21.27;61.76
16190;BME280;41754;51.498;7.540;2023-07-24T09:37:25;99145.00;;;21.24;62.31
16190;BME280;41754;51.498;7.540;2023-07-24T09:39:53;99140.16;;;21.06;63.28
16190;BME280;41754;51.498;7.540;2023-07-24T09:42:30;99142.19;;;20.69;64.03
16190;BME280;41754;51.498;7.540;2023-07-24T09:44:58;99135.03;;;20.54;64.93
16190;BME280;41754;51.498;7.540;2023-07-24T09:47:26;99138.81;;;20.60;64.12
16190;BME280;41754;51.498;7.540;2023-07-24T09:50:14;99141.22;;;20.77;62.78
16190;BME280;41754;51.498;7.540;2023-07-24T09:52:43;99141.31;;;20.90;63.27
16190;BME280;41754;51.498;7.540;2023-07-24T09:55:17;99140.91;;;20.93;63.67
16190;BME280;41754;51.498;7.540;2023-07-24T09:57:48;99140.16;;;20.49;65.31
16190;BME280;41754;51.498;7.540;2023-07-24T10:00:17;99135.72;;;20.35;66.11
16190;BME280;41754;51.498;7.540;2023-07-24T10:02:45;99137.22;;;20.23;66.39
16190;BME280;41754;51.498;7.540;2023-07-24T10:05:14;99122.19;;;20.36;66.12
16190;BME280;41754;51.498;7.540;2023-07-24T10:07:42;99124.53;;;20.74;63.63
16190;BME280;41754;51.498;7.540;2023-07-24T10:10:10;99117.38;;;21.10;63.18
16190;BME280;41754;51.498;7.540;2023-07-24T10:12:38;99124.22;;;21.26;62.65
16190;BME280;41754;51.498;7.540;2023-07-24T10:15:08;99116.97;;;21.20;62.56
16190;BME280;41754;51.498;7.540;2023-07-24T10:17:38;99111.94;;;20.97;64.29
16190;BME280;41754;51.498;7.540;2023-07-24T10:20:08;99109.03;;;20.91;63.47
16190;BME280;41754;51.498;7.540;2023-07-24T10:22:40;99100.47;;;20.74;65.27
16190;BME280;41754;51.498;7.540;2023-07-24T10:25:10;99102.59;;;20.57;66.90
16190;BME280;41754;51.498;7.540;2023-07-24T10:27:39;99110.94;;;20.48;69.54
16190;BME280;41754;51.498;7.540;2023-07-24T10:30:10;99104.00;;;20.25;70.32
16190;BME280;41754;51.498;7.540;2023-07-24T10:33:06;99110.59;;;20.29;70.22
16190;BME280;41754;51.498;7.540;2023-07-24T10:35:39;99118.59;;;20.29;69.96
16190;BME280;41754;51.498;7.540;2023-07-24T10:38:07;99119.00;;;20.05;70.15
16190;BME280;41754;51.498;7.540;2023-07-24T10:40:35;99113.75;;;20.11;71.10
16190;BME280;41754;51.498;7.540;2023-07-24T10:43:07;99129.09;;;20.09;69.65
16190;BME280;41754;51.498;7.540;2023-07-24T10:45:47;99122.44;;;20.20;70.32
16190;BME280;41754;51.498;7.540;2023-07-24T10:48:16;99118.25;;;20.61;69.98
16190;BME280;41754;51.498;7.540;2023-07-24T10:50:46;99112.16;;;21.43;65.78
16190;BME280;41754;51.498;7.540;2023-07-24T10:53:20;99118.72;;;21.96;65.05
16190;BME280;41754;51.498;7.540;2023-07-24T10:55:48;99125.97;;;22.15;64.30
16190;BME280;41754;51.498;7.540;2023-07-24T10:58:16;99131.28;;;22.02;63.36
16190;BME280;41754;51.498;7.540;2023-07-24T11:00:46;99120.50;;;21.62;62.84
16190;BME280;41754;51.498;7.540;2023-07-24T11:03:14;99116.25;;;21.39;63.77
16190;BME280;41754;51.498;7.540;2023-07-24T11:05:43;99108.66;;;21.43;62.90
16190;BME280;41754;51.498;7.540;2023-07-24T11:08:12;99106.94;;;21.83;61.96
16190;BME280;41754;51.498;7.540;2023-07-24T11:10:44;99102.66;;;21.34;63.18
16190;BME280;41754;51.498;7.540;2023-07-24T11:13:13;99096.84;;;21.24;63.24
16190;BME280;41754;51.498;7.540;2023-07-24T11:15:41;99086.38;;;21.77;62.38
16190;BME280;41754;51.498;7.540;2023-07-24T11:18:10;99091.13;;;22.02;61.04
16190;BME280;41754;51.498;7.540;2023-07-24T11:20:44;99093.00;;;22.08;61.33
16190;BME280;41754;51.498;7.540;2023-07-24T11:23:12;99096.25;;;21.83;61.23
16190;BME280;41754;51.498;7.540;2023-07-24T11:25:40;99100.28;;;21.53;61.59
16190;BME280;41754;51.498;7.540;2023-07-24T11:28:10;99095.59;;;21.20;63.55
16190;BME280;41754;51.498;7.540;2023-07-24T11:30:38;99099.75;;;20.87;64.27
16190;BME280;41754;51.498;7.540;2023-07-24T11:33:08;99105.59;;;20.48;66.06
16190;BME280;41754;51.498;7.540;2023-07-24T11:35:39;99099.91;;;20.29;66.61
16190;BME280;41754;51.498;7.540;2023-07-24T11:38:08;99099.28;;;20.06;69.84
16190;BME280;41754;51.498;7.540;2023-07-24T11:40:37;99080.69;;;19.54;72.45
16190;BME280;41754;51.498;7.540;2023-07-24T11:43:15;99066.25;;;19.12;76.99
16190;BME280;41754;51.498;7.540;2023-07-24T11:45:43;99062.56;;;18.98;78.00
16190;BME280;41754;51.498;7.540;2023-07-24T11:48:12;99062.84;;;18.88;79.49
16190;BME280;41754;51.498;7.540;2023-07-24T11:50:46;99053.16;;;18.72;79.05
16190;BME280;41754;51.498;7.540;2023-07-24T11:53:22;99041.31;;;18.60;79.16
16190;BME280;41754;51.498;7.540;2023-07-24T11:55:51;99043.78;;;18.62;80.17
16190;BME280;41754;51.498;7.540;2023-07-24T11:58:20;99041.59;;;18.50;79.81
16190;BME280;41754;51.498;7.540;2023-07-24T12:00:48;99047.28;;;18.47;79.73
16190;BME280;41754;51.498;7.540;2023-07-24T12:03:19;99042.94;;;18.46;79.66
16190;BME280;41754;51.498;7.540;2023-07-24T12:05:49;99032.94;;;18.48;80.99
16190;BME280;41754;51.498;7.540;2023-07-24T12:08:17;99049.31;;;18.60;81.26
16190;BME280;41754;51.498;7.540;2023-07-24T12:10:45;99058.78;;;18.63;81.70
16190;BME280;41754;51.498;7.540;2023-07-24T12:13:13;99070.31;;;18.55;82.65
16190;BME280;41754;51.498;7.540;2023-07-24T12:15:41;99072.59;;;18.43;82.37
16190;BME280;41754;51.498;7.540;2023-07-24T12:18:09;99078.09;;;18.27;83.55
16190;BME280;41754;51.498;7.540;2023-07-24T12:20:37;99077.72;;;18.15;84.18
16190;BME280;41754;51.498;7.540;2023-07-24T12:23:06;99094.25;;;18.02;86.95
16190;BME280;41754;51.498;7.540;2023-07-24T12:25:34;99107.97;;;17.91;87.30
16190;BME280;41754;51.498;7.540;2023-07-24T12:28:01;99113.72;;;17.71;88.24
16190;BME280;41754;51.498;7.540;2023-07-24T12:30:29;99148.09;;;17.50;88.31
16190;BME280;41754;51.498;7.540;2023-07-24T12:32:57;99145.69;;;17.23;90.04
16190;BME280;41754;51.498;7.540;2023-07-24T12:35:25;99118.69;;;16.95;90.38
16190;BME280;41754;51.498;7.540;2023-07-24T12:37:53;99108.63;;;16.58;90.24
16190;BME280;41754;51.498;7.540;2023-07-24T12:40:23;99106.78;;;16.66;91.36
16190;BME280;41754;51.498;7.540;2023-07-24T12:42:51;99102.44;;;16.82;91.37
16190;BME280;41754;51.498;7.540;2023-07-24T12:45:19;99102.44;;;16.90;89.83
16190;BME280;41754;51.498;7.540;2023-07-24T12:47:47;99094.44;;;17.06;90.24
16190;BME280;41754;51.498;7.540;2023-07-24T12:50:15;99098.66;;;17.24;88.42
16190;BME280;41754;51.498;7.540;2023-07-24T12:52:42;99091.56;;;17.48;87.59
16190;BME280;41754;51.498;7.540;2023-07-24T12:55:11;99062.38;;;17.08;86.86
16190;BME280;41754;51.498;7.540;2023-07-24T12:57:40;99058.94;;;16.99;86.16
16190;BME280;41754;51.498;7.540;2023-07-24T13:00:08;99070.25;;;16.77;86.39
16190;BME280;41754;51.498;7.540;2023-07-24T13:02:36;99067.28;;;16.72;87.15
16190;BME280;41754;51.498;7.540;2023-07-24T13:05:04;99070.56;;;16.90;86.51
16190;BME280;41754;51.498;7.540;2023-07-24T13:07:32;99059.78;;;16.75;86.53
16190;BME280;41754;51.498;7.540;2023-07-24T13:10:00;99069.19;;;17.42;86.22